sensor_id;sensor_type;location;lat;lon;timestamp;P1;durP1;ratioP1;P2;durP2;ratioP2
79566;SDS011;69030;48.126;7.816;2023-08-30T00:00:18;4.07;;;3.67;;
79566;SDS011;69030;48.126;7.816;2023-08-30T00:02:44;6.57;;;3.55;;
79566;SDS011;69030;48.126;7.816;2023-08-30T00:05:10;7.72;;;3.40;;
79566;SDS011;69030;48.126;7.816;2023-08-30T00:07:35;3.83;;;3.47;;
79566;SDS011;69030;48.126;7.816;2023-08-30T00:10:01;6.28;;;4.30;;
79566;SDS011;69030;48.126;7.816;2023-08-30T00:12:27;3.90;;;3.17;;
79566;SDS011;69030;48.126;7.816;2023-08-30T00:14:52;5.85;;;3.80;;
79566;SDS011;69030;48.126;7.816;2023-08-30T00:17:18;6.32;;;3.65;;
79566;SDS011;69030;48.126;7.816;2023-08-30T00:19:44;11.02;;;3.35;;
79566;SDS011;69030;48.126;7.816;2023-08-30T00:22:10;3.95;;;3.15;;
79566;SDS011;69030;48.126;7.816;2023-08-30T00:24:37;5.75;;;5.30;;
79566;SDS011;69030;48.126;7.816;2023-08-30T00:27:03;4.18;;;3.53;;
79566;SDS011;69030;48.126;7.816;2023-08-30T00:29:28;4.30;;;3.10;;
79566;SDS011;69030;48.126;7.816;2023-08-30T00:31:54;5.88;;;3.88;;
79566;SDS011;69030;48.126;7.816;2023-08-30T00:34:20;5.00;;;3.10;;
79566;SDS011;69030;48.126;7.816;2023-08-30T00:36:46;8.65;;;3.17;;
79566;SDS011;69030;48.126;7.816;2023-08-30T00:39:11;5.88;;;2.97;;
79566;SDS011;69030;48.126;7.816;2023-08-30T00:41:36;5.97;;;3.83;;
79566;SDS011;69030;48.126;7.816;2023-08-30T00:44:02;6.18;;;3.78;;
79566;SDS011;69030;48.126;7.816;2023-08-30T00:46:27;5.65;;;3.83;;
79566;SDS011;69030;48.126;7.816;2023-08-30T00:48:53;4.45;;;3.85;;
79566;SDS011;69030;48.126;7.816;2023-08-30T00:51:19;5.70;;;3.80;;
79566;SDS011;69030;48.126;7.816;2023-08-30T00:53:44;3.92;;;3.53;;
79566;SDS011;69030;48.126;7.816;2023-08-30T00:56:10;4.03;;;3.42;;
79566;SDS011;69030;48.126;7.816;2023-08-30T00:58:36;4.15;;;3.53;;
79566;SDS011;69030;48.126;7.816;2023-08-30T01:01:03;6.53;;;3.65;;
79566;SDS011;69030;48.126;7.816;2023-08-30T01:03:32;5.47;;;3.60;;
79566;SDS011;69030;48.126;7.816;2023-08-30T01:05:57;3.95;;;2.67;;
79566;SDS011;69030;48.126;7.816;2023-08-30T01:08:22;6.07;;;3.40;;
79566;SDS011;69030;48.126;7.816;2023-08-30T01:13:48;4.00;;;3.45;;
79566;SDS011;69030;48.126;7.816;2023-08-30T01:16:17;5.13;;;3.85;;
79566;SDS011;69030;48.126;7.816;2023-08-30T01:18:46;4.88;;;3.17;;
79566;SDS011;69030;48.126;7.816;2023-08-30T01:21:14;3.50;;;3.00;;
79566;SDS011;69030;48.126;7.816;2023-08-30T01:23:59;7.35;;;2.75;;
79566;SDS011;69030;48.126;7.816;2023-08-30T01:26:57;3.95;;;2.97;;
79566;SDS011;69030;48.126;7.816;2023-08-30T01:29:23;7.22;;;3.20;;
79566;SDS011;69030;48.126;7.816;2023-08-30T01:31:49;3.60;;;3.13;;
79566;SDS011;69030;48.126;7.816;2023-08-30T01:34:15;5.63;;;4.00;;
79566;SDS011;69030;48.126;7.816;2023-08-30T01:36:41;3.05;;;2.65;;
79566;SDS011;69030;48.126;7.816;2023-08-30T01:39:08;5.13;;;3.13;;
79566;SDS011;69030;48.126;7.816;2023-08-30T01:41:35;3.58;;;3.03;;
79566;SDS011;69030;48.126;7.816;2023-08-30T01:44:01;5.63;;;3.72;;
79566;SDS011;69030;48.126;7.816;2023-08-30T01:46:29;8.85;;;3.13;;
79566;SDS011;69030;48.126;7.816;2023-08-30T01:48:56;4.25;;;3.30;;
79566;SDS011;69030;48.126;7.816;2023-08-30T01:51:21;5.63;;;3.50;;
79566;SDS011;69030;48.126;7.816;2023-08-30T01:53:46;4.57;;;3.42;;
79566;SDS011;69030;48.126;7.816;2023-08-30T01:56:13;3.60;;;2.88;;
79566;SDS011;69030;48.126;7.816;2023-08-30T01:58:38;3.90;;;3.42;;
79566;SDS011;69030;48.126;7.816;2023-08-30T02:01:04;5.10;;;3.30;;
79566;SDS011;69030;48.126;7.816;2023-08-30T02:03:29;6.50;;;2.80;;
79566;SDS011;69030;48.126;7.816;2023-08-30T02:06:05;4.07;;;3.08;;
79566;SDS011;69030;48.126;7.816;2023-08-30T02:13:47;5.35;;;2.72;;
79566;SDS011;69030;48.126;7.816;2023-08-30T02:16:13;7.38;;;3.67;;
79566;SDS011;69030;48.126;7.816;2023-08-30T02:18:39;3.78;;;2.60;;
79566;SDS011;69030;48.126;7.816;2023-08-30T02:21:05;4.38;;;3.50;;
79566;SDS011;69030;48.126;7.816;2023-08-30T02:23:30;6.55;;;3.33;;
79566;SDS011;69030;48.126;7.816;2023-08-30T02:25:55;7.63;;;3.72;;
79566;SDS011;69030;48.126;7.816;2023-08-30T02:28:21;5.78;;;4.07;;
79566;SDS011;69030;48.126;7.816;2023-08-30T02:30:47;5.38;;;3.88;;
79566;SDS011;69030;48.126;7.816;2023-08-30T02:33:12;6.93;;;3.97;;
79566;SDS011;69030;48.126;7.816;2023-08-30T02:35:38;4.90;;;3.92;;
79566;SDS011;69030;48.126;7.816;2023-08-30T02:38:04;6.63;;;3.78;;
79566;SDS011;69030;48.126;7.816;2023-08-30T02:40:30;6.85;;;3.35;;
79566;SDS011;69030;48.126;7.816;2023-08-30T02:42:56;5.75;;;3.63;;
79566;SDS011;69030;48.126;7.816;2023-08-30T02:45:22;4.80;;;4.18;;
79566;SDS011;69030;48.126;7.816;2023-08-30T02:47:47;5.57;;;3.88;;
79566;SDS011;69030;48.126;7.816;2023-08-30T02:50:13;5.00;;;2.83;;
79566;SDS011;69030;48.126;7.816;2023-08-30T02:52:38;5.93;;;4.45;;
79566;SDS011;69030;48.126;7.816;2023-08-30T02:55:04;4.72;;;4.25;;
79566;SDS011;69030;48.126;7.816;2023-08-30T02:57:30;4.68;;;3.83;;
79566;SDS011;69030;48.126;7.816;2023-08-30T02:59:55;4.82;;;3.78;;
79566;SDS011;69030;48.126;7.816;2023-08-30T03:02:20;6.22;;;4.63;;
79566;SDS011;69030;48.126;7.816;2023-08-30T03:04:46;3.83;;;2.65;;
79566;SDS011;69030;48.126;7.816;2023-08-30T03:07:11;8.10;;;4.30;;
79566;SDS011;69030;48.126;7.816;2023-08-30T03:09:36;4.45;;;3.50;;
79566;SDS011;69030;48.126;7.816;2023-08-30T03:12:03;4.82;;;3.58;;
79566;SDS011;69030;48.126;7.816;2023-08-30T03:14:29;4.60;;;2.88;;
79566;SDS011;69030;48.126;7.816;2023-08-30T03:16:54;4.20;;;3.15;;
79566;SDS011;69030;48.126;7.816;2023-08-30T03:19:20;5.90;;;3.58;;
79566;SDS011;69030;48.126;7.816;2023-08-30T03:21:45;3.50;;;2.90;;
79566;SDS011;69030;48.126;7.816;2023-08-30T03:24:10;4.18;;;3.03;;
79566;SDS011;69030;48.126;7.816;2023-08-30T03:26:36;4.97;;;3.42;;
79566;SDS011;69030;48.126;7.816;2023-08-30T03:29:01;4.25;;;3.72;;
79566;SDS011;69030;48.126;7.816;2023-08-30T03:31:27;5.30;;;3.45;;
79566;SDS011;69030;48.126;7.816;2023-08-30T03:33:52;5.15;;;3.60;;
79566;SDS011;69030;48.126;7.816;2023-08-30T03:36:18;3.90;;;3.30;;
79566;SDS011;69030;48.126;7.816;2023-08-30T03:38:44;5.72;;;4.53;;
79566;SDS011;69030;48.126;7.816;2023-08-30T03:41:10;4.35;;;3.80;;
79566;SDS011;69030;48.126;7.816;2023-08-30T03:43:36;4.55;;;3.25;;
79566;SDS011;69030;48.126;7.816;2023-08-30T03:46:01;5.85;;;3.13;;
79566;SDS011;69030;48.126;7.816;2023-08-30T03:48:28;4.47;;;3.35;;
79566;SDS011;69030;48.126;7.816;2023-08-30T03:50:54;5.90;;;3.13;;
79566;SDS011;69030;48.126;7.816;2023-08-30T03:53:20;5.32;;;3.30;;
79566;SDS011;69030;48.126;7.816;2023-08-30T03:55:45;13.05;;;4.00;;
79566;SDS011;69030;48.126;7.816;2023-08-30T03:58:10;4.30;;;3.55;;
79566;SDS011;69030;48.126;7.816;2023-08-30T04:00:36;4.30;;;3.35;;
79566;SDS011;69030;48.126;7.816;2023-08-30T04:03:02;4.20;;;3.50;;
79566;SDS011;69030;48.126;7.816;2023-08-30T04:05:32;7.15;;;3.40;;
79566;SDS011;69030;48.126;7.816;2023-08-30T04:07:58;6.22;;;2.90;;
79566;SDS011;69030;48.126;7.816;2023-08-30T04:10:24;5.13;;;3.35;;
79566;SDS011;69030;48.126;7.816;2023-08-30T04:12:49;5.72;;;3.45;;
79566;SDS011;69030;48.126;7.816;2023-08-30T04:15:14;4.63;;;2.70;;
79566;SDS011;69030;48.126;7.816;2023-08-30T04:17:40;3.95;;;3.35;;
79566;SDS011;69030;48.126;7.816;2023-08-30T04:20:05;4.75;;;3.67;;
79566;SDS011;69030;48.126;7.816;2023-08-30T04:22:31;3.53;;;2.38;;
79566;SDS011;69030;48.126;7.816;2023-08-30T04:27:24;9.30;;;2.83;;
79566;SDS011;69030;48.126;7.816;2023-08-30T04:29:51;4.55;;;3.15;;
79566;SDS011;69030;48.126;7.816;2023-08-30T04:32:17;3.67;;;2.85;;
79566;SDS011;69030;48.126;7.816;2023-08-30T04:34:42;6.38;;;3.72;;
79566;SDS011;69030;48.126;7.816;2023-08-30T04:37:08;4.78;;;3.30;;
79566;SDS011;69030;48.126;7.816;2023-08-30T04:39:33;4.60;;;3.30;;
79566;SDS011;69030;48.126;7.816;2023-08-30T04:41:58;5.30;;;2.55;;
79566;SDS011;69030;48.126;7.816;2023-08-30T04:44:24;3.75;;;2.75;;
79566;SDS011;69030;48.126;7.816;2023-08-30T04:46:52;4.50;;;2.80;;
79566;SDS011;69030;48.126;7.816;2023-08-30T04:49:17;3.58;;;2.75;;
79566;SDS011;69030;48.126;7.816;2023-08-30T04:51:43;4.65;;;3.38;;
79566;SDS011;69030;48.126;7.816;2023-08-30T04:54:08;4.82;;;3.92;;
79566;SDS011;69030;48.126;7.816;2023-08-30T04:56:34;7.82;;;5.80;;
79566;SDS011;69030;48.126;7.816;2023-08-30T04:58:59;10.88;;;7.95;;
79566;SDS011;69030;48.126;7.816;2023-08-30T05:01:28;8.82;;;6.80;;
79566;SDS011;69030;48.126;7.816;2023-08-30T05:03:54;7.55;;;5.82;;
79566;SDS011;69030;48.126;7.816;2023-08-30T05:06:19;8.15;;;5.47;;
79566;SDS011;69030;48.126;7.816;2023-08-30T05:08:44;10.52;;;5.15;;
79566;SDS011;69030;48.126;7.816;2023-08-30T05:11:10;6.28;;;4.65;;
79566;SDS011;69030;48.126;7.816;2023-08-30T05:13:35;4.95;;;4.05;;
79566;SDS011;69030;48.126;7.816;2023-08-30T05:16:00;7.28;;;4.60;;
79566;SDS011;69030;48.126;7.816;2023-08-30T05:18:26;5.18;;;4.07;;
79566;SDS011;69030;48.126;7.816;2023-08-30T05:20:51;6.95;;;3.78;;
79566;SDS011;69030;48.126;7.816;2023-08-30T05:23:16;4.53;;;3.63;;
79566;SDS011;69030;48.126;7.816;2023-08-30T05:25:42;4.78;;;3.85;;
79566;SDS011;69030;48.126;7.816;2023-08-30T05:28:07;4.97;;;4.47;;
79566;SDS011;69030;48.126;7.816;2023-08-30T05:30:32;5.38;;;3.08;;
79566;SDS011;69030;48.126;7.816;2023-08-30T05:32:58;7.38;;;3.97;;
79566;SDS011;69030;48.126;7.816;2023-08-30T05:35:23;3.90;;;2.83;;
79566;SDS011;69030;48.126;7.816;2023-08-30T05:37:48;6.15;;;3.15;;
79566;SDS011;69030;48.126;7.816;2023-08-30T05:40:15;3.40;;;2.95;;
79566;SDS011;69030;48.126;7.816;2023-08-30T05:42:42;6.00;;;3.17;;
79566;SDS011;69030;48.126;7.816;2023-08-30T05:45:07;4.07;;;2.50;;
79566;SDS011;69030;48.126;7.816;2023-08-30T05:47:33;5.93;;;4.00;;
79566;SDS011;69030;48.126;7.816;2023-08-30T05:49:58;4.93;;;2.38;;
79566;SDS011;69030;48.126;7.816;2023-08-30T05:52:24;5.28;;;2.85;;
79566;SDS011;69030;48.126;7.816;2023-08-30T05:54:50;3.83;;;3.38;;
79566;SDS011;69030;48.126;7.816;2023-08-30T05:57:15;3.65;;;3.33;;
79566;SDS011;69030;48.126;7.816;2023-08-30T05:59:41;3.03;;;2.75;;
79566;SDS011;69030;48.126;7.816;2023-08-30T06:02:06;9.25;;;2.75;;
79566;SDS011;69030;48.126;7.816;2023-08-30T06:04:31;4.13;;;2.75;;
79566;SDS011;69030;48.126;7.816;2023-08-30T06:06:57;4.20;;;2.92;;
79566;SDS011;69030;48.126;7.816;2023-08-30T06:09:22;6.00;;;2.10;;
79566;SDS011;69030;48.126;7.816;2023-08-30T06:11:48;4.43;;;3.55;;
79566;SDS011;69030;48.126;7.816;2023-08-30T06:14:13;3.83;;;2.65;;
79566;SDS011;69030;48.126;7.816;2023-08-30T06:16:39;3.90;;;2.63;;
79566;SDS011;69030;48.126;7.816;2023-08-30T06:19:09;4.45;;;1.95;;
79566;SDS011;69030;48.126;7.816;2023-08-30T06:21:34;3.60;;;2.83;;
79566;SDS011;69030;48.126;7.816;2023-08-30T06:24:00;5.32;;;2.85;;
79566;SDS011;69030;48.126;7.816;2023-08-30T06:26:25;4.18;;;3.00;;
79566;SDS011;69030;48.126;7.816;2023-08-30T06:28:51;5.03;;;2.88;;
79566;SDS011;69030;48.126;7.816;2023-08-30T06:31:16;4.38;;;2.50;;
79566;SDS011;69030;48.126;7.816;2023-08-30T06:33:41;3.72;;;2.58;;
79566;SDS011;69030;48.126;7.816;2023-08-30T06:36:07;4.57;;;2.47;;
79566;SDS011;69030;48.126;7.816;2023-08-30T06:38:32;2.67;;;2.35;;
79566;SDS011;69030;48.126;7.816;2023-08-30T06:40:58;6.47;;;2.67;;
79566;SDS011;69030;48.126;7.816;2023-08-30T06:43:23;4.72;;;2.65;;
79566;SDS011;69030;48.126;7.816;2023-08-30T06:45:49;5.20;;;3.25;;
79566;SDS011;69030;48.126;7.816;2023-08-30T06:48:14;3.53;;;2.55;;
79566;SDS011;69030;48.126;7.816;2023-08-30T06:50:40;3.13;;;2.72;;
79566;SDS011;69030;48.126;7.816;2023-08-30T06:53:05;3.13;;;2.78;;
79566;SDS011;69030;48.126;7.816;2023-08-30T06:55:30;2.58;;;2.08;;
79566;SDS011;69030;48.126;7.816;2023-08-30T06:57:57;4.20;;;2.67;;
79566;SDS011;69030;48.126;7.816;2023-08-30T07:00:22;3.60;;;3.28;;
79566;SDS011;69030;48.126;7.816;2023-08-30T07:02:48;5.78;;;2.80;;
79566;SDS011;69030;48.126;7.816;2023-08-30T07:05:13;4.43;;;3.08;;
79566;SDS011;69030;48.126;7.816;2023-08-30T07:07:39;2.60;;;2.03;;
79566;SDS011;69030;48.126;7.816;2023-08-30T07:10:04;3.05;;;2.53;;
79566;SDS011;69030;48.126;7.816;2023-08-30T07:12:30;4.05;;;2.38;;
79566;SDS011;69030;48.126;7.816;2023-08-30T07:14:56;3.90;;;2.83;;
79566;SDS011;69030;48.126;7.816;2023-08-30T07:17:21;6.20;;;2.58;;
79566;SDS011;69030;48.126;7.816;2023-08-30T07:19:46;4.57;;;2.25;;
79566;SDS011;69030;48.126;7.816;2023-08-30T07:22:12;3.38;;;2.15;;
79566;SDS011;69030;48.126;7.816;2023-08-30T07:24:38;4.00;;;1.95;;
79566;SDS011;69030;48.126;7.816;2023-08-30T07:27:03;2.97;;;2.55;;
79566;SDS011;69030;48.126;7.816;2023-08-30T07:29:29;4.35;;;2.67;;
79566;SDS011;69030;48.126;7.816;2023-08-30T07:31:54;3.35;;;2.38;;
79566;SDS011;69030;48.126;7.816;2023-08-30T07:34:20;3.20;;;2.65;;
79566;SDS011;69030;48.126;7.816;2023-08-30T07:36:46;4.13;;;2.42;;
79566;SDS011;69030;48.126;7.816;2023-08-30T07:39:11;3.30;;;2.30;;
79566;SDS011;69030;48.126;7.816;2023-08-30T07:41:37;5.18;;;3.08;;
79566;SDS011;69030;48.126;7.816;2023-08-30T07:44:03;4.55;;;2.72;;
79566;SDS011;69030;48.126;7.816;2023-08-30T07:46:31;2.88;;;1.83;;
79566;SDS011;69030;48.126;7.816;2023-08-30T07:48:59;4.68;;;2.58;;
79566;SDS011;69030;48.126;7.816;2023-08-30T07:51:24;3.72;;;2.78;;
79566;SDS011;69030;48.126;7.816;2023-08-30T07:53:50;3.65;;;2.28;;
79566;SDS011;69030;48.126;7.816;2023-08-30T07:56:15;3.03;;;1.75;;
79566;SDS011;69030;48.126;7.816;2023-08-30T07:58:40;2.83;;;1.80;;
79566;SDS011;69030;48.126;7.816;2023-08-30T08:01:07;2.72;;;1.80;;
79566;SDS011;69030;48.126;7.816;2023-08-30T08:03:33;2.45;;;1.63;;
79566;SDS011;69030;48.126;7.816;2023-08-30T08:05:58;4.00;;;1.75;;
79566;SDS011;69030;48.126;7.816;2023-08-30T08:08:25;1.98;;;1.60;;
79566;SDS011;69030;48.126;7.816;2023-08-30T08:10:50;5.63;;;1.83;;
79566;SDS011;69030;48.126;7.816;2023-08-30T08:13:16;4.22;;;1.27;;
79566;SDS011;69030;48.126;7.816;2023-08-30T08:15:41;3.78;;;2.25;;
79566;SDS011;69030;48.126;7.816;2023-08-30T08:18:06;2.70;;;2.17;;
79566;SDS011;69030;48.126;7.816;2023-08-30T08:20:32;3.47;;;1.65;;
79566;SDS011;69030;48.126;7.816;2023-08-30T08:22:58;2.15;;;1.73;;
79566;SDS011;69030;48.126;7.816;2023-08-30T08:25:23;3.00;;;2.13;;
79566;SDS011;69030;48.126;7.816;2023-08-30T08:27:49;3.28;;;2.20;;
79566;SDS011;69030;48.126;7.816;2023-08-30T08:30:15;2.97;;;2.30;;
79566;SDS011;69030;48.126;7.816;2023-08-30T08:32:41;2.90;;;2.22;;
79566;SDS011;69030;48.126;7.816;2023-08-30T08:35:07;3.70;;;2.22;;
79566;SDS011;69030;48.126;7.816;2023-08-30T08:37:32;3.00;;;2.00;;
79566;SDS011;69030;48.126;7.816;2023-08-30T08:40:04;1.88;;;1.63;;
79566;SDS011;69030;48.126;7.816;2023-08-30T08:42:33;3.50;;;2.28;;
79566;SDS011;69030;48.126;7.816;2023-08-30T08:44:59;3.03;;;1.90;;
79566;SDS011;69030;48.126;7.816;2023-08-30T08:47:32;2.50;;;1.85;;
79566;SDS011;69030;48.126;7.816;2023-08-30T08:49:58;3.78;;;2.28;;
79566;SDS011;69030;48.126;7.816;2023-08-30T08:52:25;2.30;;;1.92;;
79566;SDS011;69030;48.126;7.816;2023-08-30T08:54:51;3.15;;;1.98;;
79566;SDS011;69030;48.126;7.816;2023-08-30T08:57:17;3.25;;;1.83;;
79566;SDS011;69030;48.126;7.816;2023-08-30T08:59:42;3.13;;;2.10;;
79566;SDS011;69030;48.126;7.816;2023-08-30T09:02:10;2.40;;;2.15;;
79566;SDS011;69030;48.126;7.816;2023-08-30T09:04:38;2.72;;;1.83;;
79566;SDS011;69030;48.126;7.816;2023-08-30T09:07:07;3.17;;;1.65;;
79566;SDS011;69030;48.126;7.816;2023-08-30T09:09:33;2.00;;;1.27;;
79566;SDS011;69030;48.126;7.816;2023-08-30T09:11:59;4.13;;;2.00;;
79566;SDS011;69030;48.126;7.816;2023-08-30T09:14:24;4.13;;;1.70;;
79566;SDS011;69030;48.126;7.816;2023-08-30T09:17:00;4.60;;;1.75;;
79566;SDS011;69030;48.126;7.816;2023-08-30T09:47:39;3.08;;;2.25;;
79566;SDS011;69030;48.126;7.816;2023-08-30T09:50:05;3.53;;;1.85;;
79566;SDS011;69030;48.126;7.816;2023-08-30T09:55:02;3.20;;;1.90;;
79566;SDS011;69030;48.126;7.816;2023-08-30T09:57:27;3.15;;;1.92;;
79566;SDS011;69030;48.126;7.816;2023-08-30T09:59:53;4.38;;;2.08;;
79566;SDS011;69030;48.126;7.816;2023-08-30T10:02:19;4.20;;;1.83;;
79566;SDS011;69030;48.126;7.816;2023-08-30T10:04:45;2.75;;;1.55;;
79566;SDS011;69030;48.126;7.816;2023-08-30T10:07:11;1.92;;;1.45;;
79566;SDS011;69030;48.126;7.816;2023-08-30T10:09:40;3.08;;;1.85;;
79566;SDS011;69030;48.126;7.816;2023-08-30T10:12:09;2.50;;;1.73;;
79566;SDS011;69030;48.126;7.816;2023-08-30T10:14:35;3.13;;;2.15;;
79566;SDS011;69030;48.126;7.816;2023-08-30T10:17:01;2.13;;;1.50;;
79566;SDS011;69030;48.126;7.816;2023-08-30T10:19:28;1.95;;;1.70;;
79566;SDS011;69030;48.126;7.816;2023-08-30T10:22:01;1.83;;;1.23;;
79566;SDS011;69030;48.126;7.816;2023-08-30T10:24:40;2.35;;;1.67;;
79566;SDS011;69030;48.126;7.816;2023-08-30T10:27:08;3.45;;;2.92;;
79566;SDS011;69030;48.126;7.816;2023-08-30T10:29:34;2.45;;;1.20;;
79566;SDS011;69030;48.126;7.816;2023-08-30T10:32:04;3.30;;;2.13;;
79566;SDS011;69030;48.126;7.816;2023-08-30T10:34:33;2.88;;;1.60;;
79566;SDS011;69030;48.126;7.816;2023-08-30T10:37:00;2.47;;;1.83;;
79566;SDS011;69030;48.126;7.816;2023-08-30T10:39:36;3.17;;;2.17;;
79566;SDS011;69030;48.126;7.816;2023-08-30T10:42:12;2.80;;;1.58;;
79566;SDS011;69030;48.126;7.816;2023-08-30T10:47:26;6.13;;;2.22;;
79566;SDS011;69030;48.126;7.816;2023-08-30T10:49:56;3.75;;;1.30;;
79566;SDS011;69030;48.126;7.816;2023-08-30T10:52:22;2.97;;;1.70;;
79566;SDS011;69030;48.126;7.816;2023-08-30T10:54:51;2.80;;;1.20;;
79566;SDS011;69030;48.126;7.816;2023-08-30T10:57:21;2.15;;;1.52;;
79566;SDS011;69030;48.126;7.816;2023-08-30T11:02:32;2.55;;;1.48;;
79566;SDS011;69030;48.126;7.816;2023-08-30T11:05:01;3.10;;;1.27;;
79566;SDS011;69030;48.126;7.816;2023-08-30T11:07:28;3.45;;;1.58;;
79566;SDS011;69030;48.126;7.816;2023-08-30T11:09:54;2.53;;;1.48;;
79566;SDS011;69030;48.126;7.816;2023-08-30T11:12:20;3.97;;;1.80;;
79566;SDS011;69030;48.126;7.816;2023-08-30T11:14:49;2.47;;;0.82;;
79566;SDS011;69030;48.126;7.816;2023-08-30T11:17:17;3.53;;;1.17;;
79566;SDS011;69030;48.126;7.816;2023-08-30T11:19:42;2.17;;;1.48;;
79566;SDS011;69030;48.126;7.816;2023-08-30T11:22:08;2.35;;;0.77;;
79566;SDS011;69030;48.126;7.816;2023-08-30T11:24:35;3.13;;;2.15;;
79566;SDS011;69030;48.126;7.816;2023-08-30T11:27:00;1.85;;;1.02;;
79566;SDS011;69030;48.126;7.816;2023-08-30T11:29:26;3.38;;;2.30;;
79566;SDS011;69030;48.126;7.816;2023-08-30T11:31:52;3.22;;;1.20;;
79566;SDS011;69030;48.126;7.816;2023-08-30T11:34:21;1.45;;;0.82;;
79566;SDS011;69030;48.126;7.816;2023-08-30T11:36:50;3.38;;;2.05;;
79566;SDS011;69030;48.126;7.816;2023-08-30T11:39:18;2.45;;;1.10;;
79566;SDS011;69030;48.126;7.816;2023-08-30T11:41:44;2.00;;;1.23;;
79566;SDS011;69030;48.126;7.816;2023-08-30T11:44:10;2.97;;;1.25;;
79566;SDS011;69030;48.126;7.816;2023-08-30T11:46:35;1.90;;;1.23;;
79566;SDS011;69030;48.126;7.816;2023-08-30T11:49:01;4.07;;;2.08;;
79566;SDS011;69030;48.126;7.816;2023-08-30T11:51:27;3.45;;;2.00;;
79566;SDS011;69030;48.126;7.816;2023-08-30T11:53:53;2.10;;;1.15;;
79566;SDS011;69030;48.126;7.816;2023-08-30T11:56:19;2.30;;;1.52;;
79566;SDS011;69030;48.126;7.816;2023-08-30T11:58:45;2.65;;;1.20;;
79566;SDS011;69030;48.126;7.816;2023-08-30T12:01:10;1.70;;;1.33;;
79566;SDS011;69030;48.126;7.816;2023-08-30T12:03:36;5.97;;;1.40;;
79566;SDS011;69030;48.126;7.816;2023-08-30T12:06:01;1.75;;;1.60;;
79566;SDS011;69030;48.126;7.816;2023-08-30T12:08:28;1.88;;;1.15;;
79566;SDS011;69030;48.126;7.816;2023-08-30T12:10:54;3.45;;;1.60;;
79566;SDS011;69030;48.126;7.816;2023-08-30T12:15:54;2.35;;;1.10;;
79566;SDS011;69030;48.126;7.816;2023-08-30T12:18:20;2.30;;;1.00;;
79566;SDS011;69030;48.126;7.816;2023-08-30T12:23:23;2.15;;;1.08;;
79566;SDS011;69030;48.126;7.816;2023-08-30T12:28:26;1.92;;;1.10;;
79566;SDS011;69030;48.126;7.816;2023-08-30T12:30:53;3.03;;;1.42;;
79566;SDS011;69030;48.126;7.816;2023-08-30T12:33:18;3.20;;;1.65;;
79566;SDS011;69030;48.126;7.816;2023-08-30T12:35:44;2.97;;;0.75;;
79566;SDS011;69030;48.126;7.816;2023-08-30T12:38:13;2.05;;;0.77;;
79566;SDS011;69030;48.126;7.816;2023-08-30T12:40:42;2.60;;;1.20;;
79566;SDS011;69030;48.126;7.816;2023-08-30T12:43:11;2.08;;;1.23;;
79566;SDS011;69030;48.126;7.816;2023-08-30T12:45:40;2.08;;;1.15;;
79566;SDS011;69030;48.126;7.816;2023-08-30T12:48:06;1.23;;;0.63;;
79566;SDS011;69030;48.126;7.816;2023-08-30T12:50:35;2.88;;;0.98;;
79566;SDS011;69030;48.126;7.816;2023-08-30T12:53:02;2.30;;;1.58;;
79566;SDS011;69030;48.126;7.816;2023-08-30T12:55:28;3.08;;;1.73;;
79566;SDS011;69030;48.126;7.816;2023-08-30T12:57:54;1.25;;;0.75;;
79566;SDS011;69030;48.126;7.816;2023-08-30T13:00:19;1.52;;;0.93;;
79566;SDS011;69030;48.126;7.816;2023-08-30T13:02:45;2.35;;;0.80;;
79566;SDS011;69030;48.126;7.816;2023-08-30T13:05:10;1.20;;;0.57;;
79566;SDS011;69030;48.126;7.816;2023-08-30T13:07:39;2.00;;;0.60;;
79566;SDS011;69030;48.126;7.816;2023-08-30T13:10:05;2.70;;;0.73;;
79566;SDS011;69030;48.126;7.816;2023-08-30T13:12:34;2.10;;;1.27;;
79566;SDS011;69030;48.126;7.816;2023-08-30T13:15:01;1.08;;;0.70;;
79566;SDS011;69030;48.126;7.816;2023-08-30T13:17:26;3.28;;;0.80;;
79566;SDS011;69030;48.126;7.816;2023-08-30T13:19:52;1.02;;;0.57;;
79566;SDS011;69030;48.126;7.816;2023-08-30T13:22:17;1.95;;;1.05;;
79566;SDS011;69030;48.126;7.816;2023-08-30T13:24:46;1.90;;;0.90;;
79566;SDS011;69030;48.126;7.816;2023-08-30T13:27:12;2.25;;;0.80;;
79566;SDS011;69030;48.126;7.816;2023-08-30T13:29:41;2.15;;;1.55;;
79566;SDS011;69030;48.126;7.816;2023-08-30T13:32:06;3.95;;;0.98;;
79566;SDS011;69030;48.126;7.816;2023-08-30T13:34:32;2.13;;;1.05;;
79566;SDS011;69030;48.126;7.816;2023-08-30T13:36:57;2.28;;;0.65;;
79566;SDS011;69030;48.126;7.816;2023-08-30T13:39:23;2.22;;;1.23;;
79566;SDS011;69030;48.126;7.816;2023-08-30T13:41:48;2.72;;;0.80;;
79566;SDS011;69030;48.126;7.816;2023-08-30T13:44:14;1.20;;;0.43;;
79566;SDS011;69030;48.126;7.816;2023-08-30T13:46:40;1.13;;;0.40;;
79566;SDS011;69030;48.126;7.816;2023-08-30T13:49:06;0.88;;;0.65;;
79566;SDS011;69030;48.126;7.816;2023-08-30T13:51:31;2.22;;;0.50;;
79566;SDS011;69030;48.126;7.816;2023-08-30T13:53:56;1.30;;;1.05;;
79566;SDS011;69030;48.126;7.816;2023-08-30T13:56:22;3.45;;;1.27;;
79566;SDS011;69030;48.126;7.816;2023-08-30T13:58:48;1.95;;;1.20;;
79566;SDS011;69030;48.126;7.816;2023-08-30T14:01:14;1.77;;;0.63;;
79566;SDS011;69030;48.126;7.816;2023-08-30T14:03:39;0.77;;;0.43;;
79566;SDS011;69030;48.126;7.816;2023-08-30T14:06:05;2.67;;;0.80;;
79566;SDS011;69030;48.126;7.816;2023-08-30T14:08:30;1.25;;;0.60;;
79566;SDS011;69030;48.126;7.816;2023-08-30T14:10:56;1.67;;;0.63;;
79566;SDS011;69030;48.126;7.816;2023-08-30T14:13:22;1.92;;;0.70;;
79566;SDS011;69030;48.126;7.816;2023-08-30T14:15:48;1.05;;;0.60;;
79566;SDS011;69030;48.126;7.816;2023-08-30T14:18:13;1.77;;;0.40;;
79566;SDS011;69030;48.126;7.816;2023-08-30T14:20:40;1.00;;;0.63;;
79566;SDS011;69030;48.126;7.816;2023-08-30T14:23:06;1.48;;;0.38;;
79566;SDS011;69030;48.126;7.816;2023-08-30T14:25:32;2.25;;;0.50;;
79566;SDS011;69030;48.126;7.816;2023-08-30T14:27:57;0.90;;;0.43;;
79566;SDS011;69030;48.126;7.816;2023-08-30T14:30:25;3.60;;;1.70;;
79566;SDS011;69030;48.126;7.816;2023-08-30T14:32:50;2.08;;;0.80;;
79566;SDS011;69030;48.126;7.816;2023-08-30T14:35:16;1.60;;;0.60;;
79566;SDS011;69030;48.126;7.816;2023-08-30T14:37:41;3.75;;;0.60;;
79566;SDS011;69030;48.126;7.816;2023-08-30T14:40:07;1.67;;;0.90;;
79566;SDS011;69030;48.126;7.816;2023-08-30T14:42:33;1.60;;;0.60;;
79566;SDS011;69030;48.126;7.816;2023-08-30T14:44:59;1.35;;;0.77;;
79566;SDS011;69030;48.126;7.816;2023-08-30T14:47:24;1.67;;;0.30;;
79566;SDS011;69030;48.126;7.816;2023-08-30T14:49:50;2.80;;;1.08;;
79566;SDS011;69030;48.126;7.816;2023-08-30T14:52:15;1.20;;;0.63;;
79566;SDS011;69030;48.126;7.816;2023-08-30T14:54:50;2.67;;;0.68;;
79566;SDS011;69030;48.126;7.816;2023-08-30T14:57:15;2.60;;;0.50;;
79566;SDS011;69030;48.126;7.816;2023-08-30T14:59:41;1.80;;;0.55;;
79566;SDS011;69030;48.126;7.816;2023-08-30T15:02:09;3.58;;;0.40;;
79566;SDS011;69030;48.126;7.816;2023-08-30T15:04:35;0.98;;;0.47;;
79566;SDS011;69030;48.126;7.816;2023-08-30T15:07:00;0.70;;;0.43;;
79566;SDS011;69030;48.126;7.816;2023-08-30T15:09:25;1.95;;;1.23;;
79566;SDS011;69030;48.126;7.816;2023-08-30T15:11:51;1.23;;;0.77;;
79566;SDS011;69030;48.126;7.816;2023-08-30T15:14:16;0.80;;;0.50;;
79566;SDS011;69030;48.126;7.816;2023-08-30T15:16:41;0.63;;;0.63;;
79566;SDS011;69030;48.126;7.816;2023-08-30T15:19:07;1.90;;;0.63;;
79566;SDS011;69030;48.126;7.816;2023-08-30T15:21:32;1.85;;;0.60;;
79566;SDS011;69030;48.126;7.816;2023-08-30T15:23:58;2.15;;;0.73;;
79566;SDS011;69030;48.126;7.816;2023-08-30T15:26:23;1.17;;;0.55;;
79566;SDS011;69030;48.126;7.816;2023-08-30T15:28:50;1.20;;;0.38;;
79566;SDS011;69030;48.126;7.816;2023-08-30T15:31:16;2.05;;;0.45;;
79566;SDS011;69030;48.126;7.816;2023-08-30T15:33:45;1.42;;;0.43;;
79566;SDS011;69030;48.126;7.816;2023-08-30T15:36:11;2.50;;;0.47;;